createdAt,value
2023-01-07T00:00:07.683Z,10.07
2023-01-07T00:01:07.578Z,10.05
2023-01-07T00:02:07.548Z,10.05
2023-01-07T00:03:07.551Z,10.07
2023-01-07T00:04:07.612Z,10.07
2023-01-07T00:05:07.542Z,10.07
2023-01-07T00:06:07.521Z,10.07
2023-01-07T00:07:07.489Z,10.08
2023-01-07T00:08:07.495Z,10.08
2023-01-07T00:09:07.483Z,10.07
2023-01-07T00:10:07.461Z,10.07
2023-01-07T00:11:07.451Z,10.08
2023-01-07T00:12:07.450Z,10.08
2023-01-07T00:13:07.423Z,10.08
2023-01-07T00:14:07.422Z,10.08
2023-01-07T00:15:07.434Z,10.07
2023-01-07T00:16:07.485Z,10.07
2023-01-07T00:17:07.393Z,10.08
2023-01-07T00:18:07.379Z,10.08
2023-01-07T00:19:07.371Z,10.05
2023-01-07T00:20:07.366Z,10.07
2023-01-07T00:21:07.353Z,10.07
2023-01-07T00:22:07.331Z,10.07
2023-01-07T00:23:07.304Z,10.07
2023-01-07T00:24:07.288Z,10.08
2023-01-07T00:25:07.292Z,10.05
2023-01-07T00:26:07.294Z,10.07
2023-01-07T00:27:07.284Z,10.08
2023-01-07T00:28:07.337Z,10.07
2023-01-07T00:29:07.241Z,10.07
2023-01-07T00:30:07.239Z,10.05
2023-01-07T00:31:07.280Z,10.08
2023-01-07T00:32:07.210Z,10.07
2023-01-07T00:33:07.197Z,10.07
2023-01-07T00:34:07.187Z,10.07
2023-01-07T00:35:07.165Z,10.08
2023-01-07T00:36:07.169Z,10.08
2023-01-07T00:37:07.171Z,10.08
2023-01-07T00:38:07.149Z,10.07
2023-01-07T00:39:07.161Z,10.07
2023-01-07T00:40:07.123Z,10.05
2023-01-07T00:41:07.091Z,10.07
2023-01-07T00:42:07.097Z,10.07
2023-01-07T00:43:07.093Z,10.07
2023-01-07T00:44:07.060Z,10.05
2023-01-07T00:45:07.043Z,10.05
2023-01-07T00:46:07.057Z,10.04
2023-01-07T00:47:07.038Z,10.05
2023-01-07T00:48:07.028Z,10.01
2023-01-07T00:49:07.013Z,10.01
2023-01-07T00:50:07.030Z,9.99
2023-01-07T00:51:06.981Z,9.97
2023-01-07T00:52:06.988Z,10.01
2023-01-07T00:53:06.957Z,10.02
2023-01-07T00:54:06.961Z,10.02
2023-01-07T00:55:06.931Z,10.02
2023-01-07T00:56:06.922Z,10.04
2023-01-07T00:57:06.915Z,10.02
2023-01-07T00:58:06.929Z,10.04
2023-01-07T00:59:06.915Z,10.02
2023-01-07T01:00:06.876Z,10.04
2023-01-07T01:01:07.064Z,10.02
2023-01-07T01:02:07.008Z,10.04
2023-01-07T01:03:06.841Z,10.02
2023-01-07T01:04:06.855Z,10.02
2023-01-07T01:05:06.859Z,10.04
2023-01-07T01:06:06.824Z,10.05
2023-01-07T01:07:06.811Z,10.05
2023-01-07T01:08:06.795Z,10.08
2023-01-07T01:09:06.776Z,10.07
2023-01-07T01:10:06.793Z,10.07
2023-01-07T01:11:06.830Z,10.08
2023-01-07T01:12:06.744Z,10.04
2023-01-07T01:13:06.765Z,10.05
2023-01-07T01:14:06.726Z,10.05
2023-01-07T01:15:06.739Z,10.05
2023-01-07T01:16:06.771Z,10.05
2023-01-07T01:17:06.695Z,10.05
2023-01-07T01:18:06.675Z,10.05
2023-01-07T01:19:06.683Z,10.07
2023-01-07T01:20:06.669Z,10.05
2023-01-07T01:21:06.659Z,10.07
2023-01-07T01:22:06.636Z,10.05
2023-01-07T01:23:06.640Z,10.05
2023-01-07T01:24:06.621Z,10.05
2023-01-07T01:25:06.626Z,10.05
2023-01-07T01:26:06.586Z,10.04
2023-01-07T01:27:06.604Z,10.04
2023-01-07T01:28:06.577Z,10.04
2023-01-07T01:29:06.547Z,10.04
2023-01-07T01:30:06.540Z,10.02
2023-01-07T01:31:06.596Z,10.04
2023-01-07T01:32:06.518Z,10.04
2023-01-07T01:33:06.532Z,10.01
2023-01-07T01:34:06.497Z,10.02
2023-01-07T01:35:06.481Z,10.04
2023-01-07T01:36:06.479Z,10.04
2023-01-07T01:37:06.466Z,10.02
2023-01-07T01:38:06.468Z,10.01
2023-01-07T01:39:06.435Z,10.02
2023-01-07T01:40:06.433Z,10.04
2023-01-07T01:41:06.408Z,10.04
2023-01-07T01:42:06.433Z,10.02
2023-01-07T01:43:06.405Z,10.01
2023-01-07T01:44:06.385Z,10.01
2023-01-07T01:45:06.377Z,9.99
2023-01-07T01:46:06.364Z,9.99
2023-01-07T01:47:06.396Z,9.97
2023-01-07T01:48:06.362Z,9.99
2023-01-07T01:49:06.333Z,9.99
2023-01-07T01:50:06.319Z,10.01
2023-01-07T01:51:06.287Z,10.01
2023-01-07T01:52:06.310Z,10.01
2023-01-07T01:53:06.287Z,10.01
2023-01-07T01:54:06.261Z,9.97
2023-01-07T01:55:06.259Z,9.97
2023-01-07T01:56:06.239Z,9.97
2023-01-07T01:57:06.237Z,9.96
2023-01-07T01:58:06.210Z,9.93
2023-01-07T01:59:06.229Z,9.94
2023-01-07T02:00:06.211Z,9.94
2023-01-07T02:01:06.354Z,9.96
2023-01-07T02:02:06.323Z,9.97
2023-01-07T02:03:06.158Z,9.97
2023-01-07T02:04:06.142Z,9.96
2023-01-07T02:05:06.146Z,9.99
2023-01-07T02:06:06.176Z,9.99
2023-01-07T02:07:06.140Z,9.99
2023-01-07T02:08:06.097Z,9.97
2023-01-07T02:09:06.093Z,9.96
2023-01-07T02:10:06.081Z,9.97
2023-01-07T02:11:06.068Z,9.96
2023-01-07T02:12:06.061Z,9.94
2023-01-07T02:13:06.057Z,9.93
2023-01-07T02:14:06.038Z,9.93
2023-01-07T02:15:06.023Z,9.94
2023-01-07T02:16:06.049Z,9.93
2023-01-07T02:17:06.000Z,9.93
2023-01-07T02:18:05.994Z,9.91
2023-01-07T02:19:05.994Z,9.91
2023-01-07T02:20:05.976Z,9.93
2023-01-07T02:21:05.946Z,9.94
2023-01-07T02:22:05.945Z,9.94
2023-01-07T02:23:05.965Z,9.94
2023-01-07T02:24:05.930Z,9.93
2023-01-07T02:25:05.938Z,9.94
2023-01-07T02:26:05.900Z,9.94
2023-01-07T02:27:05.885Z,9.96
2023-01-07T02:28:05.904Z,9.96
2023-01-07T02:29:05.869Z,9.96
2023-01-07T02:30:05.861Z,9.94
2023-01-07T02:31:05.868Z,9.93
2023-01-07T02:32:05.843Z,9.96
2023-01-07T02:33:05.811Z,9.94
2023-01-07T02:34:05.825Z,9.96
2023-01-07T02:35:05.798Z,9.94
2023-01-07T02:36:05.789Z,9.94
2023-01-07T02:37:05.782Z,9.94
2023-01-07T02:38:05.758Z,9.93
2023-01-07T02:39:05.756Z,9.93
2023-01-07T02:40:05.729Z,9.94
2023-01-07T02:41:05.724Z,9.94
2023-01-07T02:42:05.701Z,9.94
2023-01-07T02:43:05.712Z,9.94
2023-01-07T02:44:05.679Z,9.94
2023-01-07T02:45:05.677Z,9.94
2023-01-07T02:46:05.752Z,9.94
2023-01-07T02:47:05.652Z,9.93
2023-01-07T02:48:05.660Z,9.93
2023-01-07T02:49:05.646Z,9.94
2023-01-07T02:50:05.630Z,9.94
2023-01-07T02:51:05.610Z,9.93
2023-01-07T02:52:05.587Z,9.94
2023-01-07T02:53:05.587Z,9.96
2023-01-07T02:54:05.580Z,9.93
2023-01-07T02:55:05.574Z,9.94
2023-01-07T02:56:05.552Z,9.94
2023-01-07T02:57:05.562Z,9.91
2023-01-07T02:58:05.527Z,9.91
2023-01-07T02:59:05.527Z,9.91
2023-01-07T03:00:05.521Z,9.94
2023-01-07T03:01:05.690Z,9.96
2023-01-07T03:02:05.649Z,9.96
2023-01-07T03:03:05.489Z,9.94
2023-01-07T03:04:05.552Z,9.94
2023-01-07T03:05:05.470Z,9.96
2023-01-07T03:06:05.457Z,9.94
2023-01-07T03:07:05.431Z,9.96
2023-01-07T03:08:05.424Z,9.94
2023-01-07T03:09:05.408Z,9.93
2023-01-07T03:10:05.398Z,9.94
2023-01-07T03:11:05.389Z,9.93
2023-01-07T03:12:05.381Z,9.91
2023-01-07T03:13:05.369Z,9.90
2023-01-07T03:14:05.365Z,9.93
2023-01-07T03:15:05.352Z,9.94
2023-01-07T03:16:05.432Z,9.94
2023-01-07T03:17:05.310Z,9.93
2023-01-07T03:18:05.303Z,9.93
2023-01-07T03:19:05.293Z,9.91
2023-01-07T03:20:05.286Z,9.93
2023-01-07T03:21:05.288Z,9.93
2023-01-07T03:22:05.279Z,9.93
2023-01-07T03:23:05.255Z,9.93
2023-01-07T03:24:05.236Z,9.93
2023-01-07T03:25:05.229Z,9.91
2023-01-07T03:26:05.227Z,9.93
2023-01-07T03:27:05.221Z,9.89
2023-01-07T03:28:10.731Z,9.87
2023-01-07T03:29:05.191Z,9.87
2023-01-07T03:30:05.180Z,9.87
2023-01-07T03:31:05.167Z,9.87
2023-01-07T03:32:05.235Z,9.87
2023-01-07T03:33:05.146Z,9.86
2023-01-07T03:34:05.152Z,9.89
2023-01-07T03:35:05.115Z,9.87
2023-01-07T03:36:05.111Z,9.89
2023-01-07T03:37:05.101Z,9.86
2023-01-07T03:38:05.099Z,9.87
2023-01-07T03:39:05.068Z,9.86
2023-01-07T03:40:05.062Z,9.86
2023-01-07T03:41:05.047Z,9.86
2023-01-07T03:42:05.047Z,9.86
2023-01-07T03:43:05.036Z,9.84
2023-01-07T03:44:05.035Z,9.84
2023-01-07T03:45:05.010Z,9.84
2023-01-07T03:46:05.037Z,9.86
2023-01-07T03:47:05.007Z,9.84
2023-01-07T03:48:04.972Z,9.83
2023-01-07T03:49:04.965Z,9.83
2023-01-07T03:50:04.971Z,9.79
2023-01-07T03:51:04.937Z,9.76
2023-01-07T03:52:04.984Z,9.76
2023-01-07T03:53:04.941Z,9.75
2023-01-07T03:54:04.917Z,9.69
2023-01-07T03:55:04.911Z,9.68
2023-01-07T03:56:04.902Z,9.64
2023-01-07T03:57:04.888Z,9.61
2023-01-07T03:58:04.879Z,9.60
2023-01-07T03:59:04.862Z,9.57
2023-01-07T04:00:04.866Z,9.56
2023-01-07T04:01:04.961Z,9.53
2023-01-07T04:02:05.006Z,9.53
2023-01-07T04:03:04.814Z,9.54
2023-01-07T04:04:04.894Z,9.51
2023-01-07T04:05:04.793Z,9.50
2023-01-07T04:06:04.779Z,9.47
2023-01-07T04:07:04.786Z,9.46
2023-01-07T04:08:04.761Z,9.40
2023-01-07T04:09:04.774Z,9.42
2023-01-07T04:10:04.749Z,9.40
2023-01-07T04:11:04.751Z,9.42
2023-01-07T04:12:04.755Z,9.40
2023-01-07T04:13:04.715Z,9.40
2023-01-07T04:14:04.715Z,9.39
2023-01-07T04:15:04.760Z,9.39
2023-01-07T04:16:04.682Z,9.36
2023-01-07T04:17:04.670Z,9.36
2023-01-07T04:18:04.664Z,9.38
2023-01-07T04:19:04.658Z,9.36
2023-01-07T04:20:04.661Z,9.36
2023-01-07T04:21:04.627Z,9.36
2023-01-07T04:22:04.612Z,9.38
2023-01-07T04:23:04.604Z,9.36
2023-01-07T04:24:04.598Z,9.35
2023-01-07T04:25:04.604Z,9.36
2023-01-07T04:26:04.598Z,9.36
2023-01-07T04:27:04.550Z,9.35
2023-01-07T04:28:04.553Z,9.33
2023-01-07T04:29:04.536Z,9.35
2023-01-07T04:30:04.516Z,9.33
2023-01-07T04:31:04.609Z,9.32
2023-01-07T04:32:04.503Z,9.31
2023-01-07T04:33:04.509Z,9.32
2023-01-07T04:34:04.518Z,9.32
2023-01-07T04:35:04.479Z,9.28
2023-01-07T04:36:04.469Z,9.26
2023-01-07T04:37:04.464Z,9.26
2023-01-07T04:38:04.445Z,9.26
2023-01-07T04:39:04.434Z,9.23
2023-01-07T04:40:04.420Z,9.21
2023-01-07T04:41:04.406Z,9.21
2023-01-07T04:42:04.393Z,9.21
2023-01-07T04:43:04.382Z,9.21
2023-01-07T04:44:04.367Z,9.18
2023-01-07T04:45:04.356Z,9.18
2023-01-07T04:46:04.462Z,9.20
2023-01-07T04:47:04.344Z,9.20
2023-01-07T04:48:04.346Z,9.21
2023-01-07T04:49:04.322Z,9.21
2023-01-07T04:50:04.313Z,9.21
2023-01-07T04:51:04.298Z,9.23
2023-01-07T04:52:04.289Z,9.21
2023-01-07T04:53:04.277Z,9.21
2023-01-07T04:54:04.282Z,9.21
2023-01-07T04:55:04.265Z,9.18
2023-01-07T04:56:04.248Z,9.20
2023-01-07T04:57:04.238Z,9.18
2023-01-07T04:58:04.220Z,9.18
2023-01-07T04:59:04.299Z,9.18
2023-01-07T05:00:04.211Z,9.17
2023-01-07T05:01:04.382Z,9.15
2023-01-07T05:02:04.373Z,9.15
2023-01-07T05:03:04.178Z,9.14
2023-01-07T05:04:04.219Z,9.14
2023-01-07T05:05:04.149Z,9.15
2023-01-07T05:06:04.146Z,9.14
2023-01-07T05:07:04.133Z,9.15
2023-01-07T05:08:04.104Z,9.15
2023-01-07T05:09:04.107Z,9.14
2023-01-07T05:10:04.091Z,9.14
2023-01-07T05:11:04.082Z,9.14
2023-01-07T05:12:04.089Z,9.11
2023-01-07T05:13:06.060Z,9.14
2023-01-07T05:14:04.060Z,9.15
2023-01-07T05:15:04.048Z,9.15
2023-01-07T05:16:04.050Z,9.17
2023-01-07T05:17:04.113Z,9.17
2023-01-07T05:18:04.022Z,9.14
2023-01-07T05:19:03.995Z,9.13
2023-01-07T05:20:03.995Z,9.14
2023-01-07T05:21:03.977Z,9.11
2023-01-07T05:22:03.983Z,9.13
2023-01-07T05:23:03.953Z,9.13
2023-01-07T05:24:03.964Z,9.13
2023-01-07T05:25:03.955Z,9.14
2023-01-07T05:26:03.921Z,9.13
2023-01-07T05:27:03.942Z,9.17
2023-01-07T05:28:03.913Z,9.17
2023-01-07T05:29:03.898Z,9.18
2023-01-07T05:30:03.883Z,9.17
2023-01-07T05:31:03.957Z,9.18
2023-01-07T05:32:03.870Z,9.20
2023-01-07T05:33:03.875Z,9.23
2023-01-07T05:34:03.841Z,9.24
2023-01-07T05:35:03.831Z,9.28
2023-01-07T05:36:03.836Z,9.31
2023-01-07T05:37:03.903Z,9.32
2023-01-07T05:38:03.920Z,9.33
2023-01-07T05:39:03.984Z,9.35
2023-01-07T05:40:03.959Z,9.35
2023-01-07T05:41:03.785Z,9.38
2023-01-07T05:42:04.105Z,9.38
2023-01-07T05:43:03.772Z,9.39
2023-01-07T05:44:03.756Z,9.40
2023-01-07T05:45:03.739Z,9.43
2023-01-07T05:46:03.776Z,9.46
2023-01-07T05:47:03.714Z,9.46
2023-01-07T05:48:03.703Z,9.47
2023-01-07T05:49:03.680Z,9.47
2023-01-07T05:50:03.676Z,9.47
2023-01-07T05:51:03.695Z,9.50
2023-01-07T05:52:03.657Z,9.51
2023-01-07T05:53:03.653Z,9.50
2023-01-07T05:54:03.640Z,9.51
2023-01-07T05:55:03.641Z,9.48
2023-01-07T05:56:03.663Z,9.51
2023-01-07T05:57:03.610Z,9.50
2023-01-07T05:58:03.621Z,9.51
2023-01-07T05:59:03.784Z,9.51
2023-01-07T06:00:03.569Z,9.51
2023-01-07T06:01:03.591Z,9.53
2023-01-07T06:02:03.547Z,9.51
2023-01-07T06:03:03.617Z,9.51
2023-01-07T06:04:03.772Z,9.51
2023-01-07T06:05:03.792Z,9.53
2023-01-07T06:06:03.500Z,9.53
2023-01-07T06:07:03.517Z,9.53
2023-01-07T06:08:03.493Z,9.53
2023-01-07T06:09:03.487Z,9.54
2023-01-07T06:10:03.483Z,9.54
2023-01-07T06:11:03.451Z,9.56
2023-01-07T06:12:03.455Z,9.54
2023-01-07T06:13:03.442Z,9.54
2023-01-07T06:14:03.419Z,9.54
2023-01-07T06:15:03.452Z,9.57
2023-01-07T06:16:03.459Z,9.57
2023-01-07T06:17:03.406Z,9.57
2023-01-07T06:18:03.390Z,9.54
2023-01-07T06:19:03.378Z,9.54
2023-01-07T06:20:03.372Z,9.54
2023-01-07T06:21:03.363Z,9.56
2023-01-07T06:22:03.343Z,9.56
2023-01-07T06:23:03.330Z,9.56
2023-01-07T06:24:03.333Z,9.56
2023-01-07T06:25:03.308Z,9.54
2023-01-07T06:26:03.304Z,9.53
2023-01-07T06:27:03.296Z,9.53
2023-01-07T06:28:03.284Z,9.54
2023-01-07T06:29:03.269Z,9.54
2023-01-07T06:30:03.278Z,9.54
2023-01-07T06:31:03.280Z,9.54
2023-01-07T06:32:03.255Z,9.56
2023-01-07T06:33:03.237Z,9.54
2023-01-07T06:34:03.227Z,9.56
2023-01-07T06:35:03.212Z,9.54
2023-01-07T06:36:03.192Z,9.54
2023-01-07T06:37:03.204Z,9.56
2023-01-07T06:38:03.176Z,9.54
2023-01-07T06:39:03.189Z,9.56
2023-01-07T06:40:03.200Z,9.56
2023-01-07T06:41:03.157Z,9.54
2023-01-07T06:42:03.132Z,9.53
2023-01-07T06:43:03.131Z,9.53
2023-01-07T06:44:03.110Z,9.51
2023-01-07T06:45:03.107Z,9.53
2023-01-07T06:46:03.144Z,9.53
2023-01-07T06:47:03.098Z,9.54
2023-01-07T06:48:03.082Z,9.54
2023-01-07T06:49:03.065Z,9.53
2023-01-07T06:50:03.053Z,9.54
2023-01-07T06:51:03.059Z,9.54
2023-01-07T06:52:03.047Z,9.54
2023-01-07T06:53:03.022Z,9.54
2023-01-07T06:54:03.019Z,9.56
2023-01-07T06:55:02.992Z,9.54
2023-01-07T06:56:02.983Z,9.56
2023-01-07T06:57:03.006Z,9.58
2023-01-07T06:58:02.966Z,9.57
2023-01-07T06:59:02.960Z,9.57
2023-01-07T07:00:02.948Z,9.57
2023-01-07T07:01:02.968Z,9.58
2023-01-07T07:02:02.992Z,9.58
2023-01-07T07:03:03.034Z,9.58
2023-01-07T07:04:02.915Z,9.57
2023-01-07T07:05:02.901Z,9.57
2023-01-07T07:06:02.876Z,9.60
2023-01-07T07:07:02.872Z,9.58
2023-01-07T07:08:02.855Z,9.60
2023-01-07T07:09:02.882Z,9.60
2023-01-07T07:10:02.832Z,9.57
2023-01-07T07:11:02.869Z,9.58
2023-01-07T07:12:02.816Z,9.57
2023-01-07T07:13:02.838Z,9.58
2023-01-07T07:14:02.803Z,9.57
2023-01-07T07:15:02.805Z,9.57
2023-01-07T07:16:02.853Z,9.57
2023-01-07T07:17:02.786Z,9.57
2023-01-07T07:18:02.746Z,9.58
2023-01-07T07:19:02.746Z,9.58
2023-01-07T07:20:02.761Z,9.60
2023-01-07T07:21:02.741Z,9.58
2023-01-07T07:22:04.607Z,9.58
2023-01-07T07:23:02.710Z,9.58
2023-01-07T07:24:02.693Z,9.60
2023-01-07T07:25:02.677Z,9.60
2023-01-07T07:26:02.681Z,9.64
2023-01-07T07:27:02.678Z,9.65
2023-01-07T07:28:02.646Z,9.65
2023-01-07T07:29:02.653Z,9.65
2023-01-07T07:30:02.633Z,9.65
2023-01-07T07:31:02.717Z,9.68
2023-01-07T07:32:02.601Z,9.66
2023-01-07T07:33:02.620Z,9.68
2023-01-07T07:34:02.596Z,9.66
2023-01-07T07:35:02.571Z,9.65
2023-01-07T07:36:02.571Z,9.66
2023-01-07T07:37:02.551Z,9.66
2023-01-07T07:38:02.548Z,9.68
2023-01-07T07:39:02.535Z,9.66
2023-01-07T07:40:02.527Z,9.68
2023-01-07T07:41:02.533Z,9.71
2023-01-07T07:42:02.493Z,9.71
2023-01-07T07:43:10.834Z,9.72
2023-01-07T07:44:02.527Z,9.74
2023-01-07T07:45:02.465Z,9.72
2023-01-07T07:46:02.459Z,9.72
2023-01-07T07:47:02.445Z,9.72
2023-01-07T07:48:02.440Z,9.74
2023-01-07T07:49:02.466Z,9.74
2023-01-07T07:50:02.433Z,9.75
2023-01-07T07:51:02.401Z,9.75
2023-01-07T07:52:02.393Z,9.76
2023-01-07T07:53:02.392Z,9.75
2023-01-07T07:54:02.416Z,9.75
2023-01-07T07:55:20.468Z,9.75
2023-01-07T07:56:02.355Z,9.76
2023-01-07T07:57:02.336Z,9.76
2023-01-07T07:58:02.340Z,9.75
2023-01-07T07:59:02.316Z,9.74
2023-01-07T08:00:02.332Z,9.75
2023-01-07T08:01:02.352Z,9.74
2023-01-07T08:02:02.326Z,9.75
2023-01-07T08:03:02.367Z,9.76
2023-01-07T08:04:02.298Z,9.76
2023-01-07T08:05:02.256Z,9.75
2023-01-07T08:06:02.251Z,9.76
2023-01-07T08:07:02.238Z,9.76
2023-01-07T08:08:02.226Z,9.76
2023-01-07T08:09:02.216Z,9.76
2023-01-07T08:10:02.212Z,9.75
2023-01-07T08:11:02.196Z,9.76
2023-01-07T08:12:02.176Z,9.76
2023-01-07T08:13:02.218Z,9.76
2023-01-07T08:14:02.158Z,9.78
2023-01-07T08:15:02.167Z,9.78
2023-01-07T08:16:02.130Z,9.78
2023-01-07T08:17:02.127Z,9.78
2023-01-07T08:18:02.146Z,9.76
2023-01-07T08:19:02.111Z,9.78
2023-01-07T08:20:02.114Z,9.75
2023-01-07T08:21:02.097Z,9.78
2023-01-07T08:22:02.105Z,9.78
2023-01-07T08:23:02.091Z,9.78
2023-01-07T08:24:02.552Z,9.79
2023-01-07T08:25:02.426Z,9.78
2023-01-07T08:26:02.045Z,9.81
2023-01-07T08:27:02.022Z,9.79
2023-01-07T08:28:02.023Z,9.81
2023-01-07T08:29:02.003Z,9.79
2023-01-07T08:30:02.027Z,9.81
2023-01-07T08:31:02.026Z,9.81
2023-01-07T08:32:01.979Z,9.83
2023-01-07T08:33:01.960Z,9.84
2023-01-07T08:34:01.954Z,9.84
2023-01-07T08:35:01.967Z,9.83
2023-01-07T08:36:03.617Z,9.83
2023-01-07T08:37:01.926Z,9.84
2023-01-07T08:38:01.929Z,9.83
2023-01-07T08:39:01.903Z,9.81
2023-01-07T08:40:03.992Z,9.81
2023-01-07T08:41:01.890Z,9.83
2023-01-07T08:42:01.887Z,9.84
2023-01-07T08:43:01.967Z,9.84
2023-01-07T08:44:01.851Z,9.86
2023-01-07T08:45:01.886Z,9.86
2023-01-07T08:46:01.860Z,9.86
2023-01-07T08:47:01.856Z,9.84
2023-01-07T08:48:01.835Z,9.89
2023-01-07T08:49:01.846Z,9.86
2023-01-07T08:50:01.834Z,9.87
2023-01-07T08:51:01.779Z,9.86
2023-01-07T08:52:01.771Z,9.83
2023-01-07T08:53:01.798Z,9.83
2023-01-07T08:54:01.754Z,9.83
2023-01-07T08:55:01.735Z,9.84
2023-01-07T08:56:01.735Z,9.86
2023-01-07T08:57:01.732Z,9.86
2023-01-07T08:58:01.703Z,9.87
2023-01-07T08:59:01.718Z,9.86
2023-01-07T09:00:01.679Z,9.86
2023-01-07T09:01:01.809Z,9.86
2023-01-07T09:02:01.779Z,9.89
2023-01-07T09:03:01.653Z,9.87
2023-01-07T09:04:01.654Z,9.87
2023-01-07T09:05:01.626Z,9.86
2023-01-07T09:06:01.624Z,9.86
2023-01-07T09:07:01.602Z,9.89
2023-01-07T09:08:01.601Z,9.90
2023-01-07T09:09:01.600Z,9.90
2023-01-07T09:10:01.685Z,9.90
2023-01-07T09:11:01.566Z,9.90
2023-01-07T09:12:01.556Z,9.90
2023-01-07T09:13:01.537Z,9.90
2023-01-07T09:14:01.533Z,9.91
2023-01-07T09:15:01.526Z,9.93
2023-01-07T09:16:01.587Z,9.94
2023-01-07T09:17:01.496Z,9.97
2023-01-07T09:18:01.500Z,10.01
2023-01-07T09:19:01.491Z,9.97
2023-01-07T09:20:01.549Z,9.97
2023-01-07T09:21:01.464Z,9.96
2023-01-07T09:22:01.465Z,9.97
2023-01-07T09:23:01.434Z,9.97
2023-01-07T09:24:01.445Z,9.96
2023-01-07T09:25:01.410Z,9.93
2023-01-07T09:26:01.401Z,9.96
2023-01-07T09:27:01.406Z,9.97
2023-01-07T09:28:01.380Z,9.97
2023-01-07T09:29:01.365Z,9.94
2023-01-07T09:30:01.402Z,9.94
2023-01-07T09:31:01.339Z,9.96
2023-01-07T09:32:01.382Z,9.94
2023-01-07T09:33:01.314Z,9.94
2023-01-07T09:34:01.325Z,9.94
2023-01-07T09:35:01.300Z,9.94
2023-01-07T09:36:01.287Z,9.91
2023-01-07T09:37:01.301Z,9.93
2023-01-07T09:38:01.312Z,9.94
2023-01-07T09:39:01.252Z,9.93
2023-01-07T09:40:01.309Z,9.93
2023-01-07T09:41:01.258Z,9.94
2023-01-07T09:42:01.304Z,9.96
2023-01-07T09:43:01.241Z,9.97
2023-01-07T09:44:01.908Z,9.99
2023-01-07T09:45:01.236Z,9.99
2023-01-07T09:46:01.254Z,9.97
2023-01-07T09:47:01.167Z,9.97
2023-01-07T09:48:01.173Z,10.02
2023-01-07T09:49:01.196Z,10.04
2023-01-07T09:50:01.135Z,10.04
2023-01-07T09:51:01.144Z,10.07
2023-01-07T09:52:01.125Z,10.08
2023-01-07T09:53:01.100Z,10.09
2023-01-07T09:54:01.144Z,10.11
2023-01-07T09:55:01.091Z,10.11
2023-01-07T09:56:10.937Z,10.11
2023-01-07T09:57:01.877Z,10.11
2023-01-07T09:58:01.536Z,10.17
2023-01-07T09:59:01.115Z,10.18
2023-01-07T10:00:01.038Z,10.23
2023-01-07T10:01:01.065Z,10.27
2023-01-07T10:02:01.005Z,10.27
2023-01-07T10:03:01.044Z,10.30
2023-01-07T10:04:01.073Z,10.32
2023-01-07T10:05:00.988Z,10.33
2023-01-07T10:06:00.971Z,10.34
2023-01-07T10:07:00.948Z,10.34
2023-01-07T10:08:31.693Z,10.40
2023-01-07T10:09:00.948Z,10.40
2023-01-07T10:10:00.912Z,10.42
2023-01-07T10:11:00.905Z,10.45
2023-01-07T10:12:00.888Z,10.48
2023-01-07T10:13:00.893Z,10.52
2023-01-07T10:14:00.885Z,10.55
2023-01-07T10:15:00.862Z,10.59
2023-01-07T10:16:01.058Z,10.63
2023-01-07T10:17:00.830Z,10.61
2023-01-07T10:18:00.829Z,10.61
2023-01-07T10:19:00.833Z,10.63
2023-01-07T10:20:00.801Z,10.63
2023-01-07T10:21:00.794Z,10.66
2023-01-07T10:22:00.774Z,10.66
2023-01-07T10:23:00.775Z,10.66
2023-01-07T10:24:00.756Z,10.67
2023-01-07T10:25:00.765Z,10.64
2023-01-07T10:26:00.732Z,10.64
2023-01-07T10:27:00.722Z,10.67
2023-01-07T10:28:00.751Z,10.68
2023-01-07T10:29:00.719Z,10.67
2023-01-07T10:30:00.720Z,10.68
2023-01-07T10:31:00.680Z,10.71
2023-01-07T10:32:00.768Z,10.71
2023-01-07T10:33:00.942Z,10.70
2023-01-07T10:34:00.644Z,10.73
2023-01-07T10:35:00.643Z,10.74
2023-01-07T10:36:00.621Z,10.78
2023-01-07T10:37:00.611Z,10.76
2023-01-07T10:38:00.591Z,10.82
2023-01-07T10:39:00.578Z,10.85
2023-01-07T10:40:00.584Z,10.91
2023-01-07T10:41:00.553Z,10.96
2023-01-07T10:42:00.566Z,10.96
2023-01-07T10:43:00.533Z,10.96
2023-01-07T10:44:00.517Z,10.97
2023-01-07T10:45:00.514Z,10.92
2023-01-07T10:46:00.626Z,10.88
2023-01-07T10:47:00.488Z,10.84
2023-01-07T10:48:00.493Z,10.81
2023-01-07T10:49:00.459Z,10.81
2023-01-07T10:50:00.446Z,10.82
2023-01-07T10:51:00.451Z,10.84
2023-01-07T10:52:00.429Z,10.85
2023-01-07T10:53:00.423Z,10.91
2023-01-07T10:54:00.409Z,10.91
2023-01-07T10:55:00.410Z,10.96
2023-01-07T10:56:00.405Z,11.00
2023-01-07T10:57:00.377Z,11.04
2023-01-07T10:58:00.369Z,11.07
2023-01-07T10:59:00.353Z,11.14
2023-01-07T11:00:00.339Z,11.17
2023-01-07T11:01:00.481Z,11.21
2023-01-07T11:02:00.650Z,11.25
2023-01-07T11:03:00.431Z,11.29
2023-01-07T11:04:00.290Z,11.32
2023-01-07T11:05:00.293Z,11.28
2023-01-07T11:06:00.269Z,11.25
2023-01-07T11:07:00.268Z,11.24
2023-01-07T11:08:00.260Z,11.21
2023-01-07T11:09:00.232Z,11.17
2023-01-07T11:10:00.231Z,11.07
2023-01-07T11:11:00.207Z,11.03
2023-01-07T11:12:00.217Z,11.03
2023-01-07T11:13:00.206Z,11.03
2023-01-07T11:14:00.172Z,10.99
2023-01-07T11:15:00.163Z,10.97
2023-01-07T11:16:00.150Z,10.96
2023-01-07T11:17:00.151Z,10.94
2023-01-07T11:18:00.209Z,10.91
2023-01-07T11:19:00.131Z,10.92
2023-01-07T11:20:00.164Z,10.92
2023-01-07T11:21:00.143Z,10.89
2023-01-07T11:22:00.088Z,10.88
2023-01-07T11:23:00.100Z,10.89
2023-01-07T11:24:00.104Z,10.89
2023-01-07T11:25:00.083Z,10.92
2023-01-07T11:26:00.052Z,10.96
2023-01-07T11:27:00.124Z,10.97
2023-01-07T11:28:00.102Z,11.02
2023-01-07T11:29:00.039Z,11.02
2023-01-07T11:30:00.178Z,10.99
2023-01-07T11:31:00.005Z,10.91
2023-01-07T11:32:00.135Z,10.89
2023-01-07T11:32:59.964Z,10.88
2023-01-07T11:34:02.840Z,10.86
2023-01-07T11:34:59.951Z,10.88
2023-01-07T11:35:59.939Z,10.89
2023-01-07T11:36:59.941Z,10.91
2023-01-07T11:37:59.899Z,10.86
2023-01-07T11:38:59.903Z,10.85
2023-01-07T11:39:59.897Z,10.88
2023-01-07T11:41:00.770Z,10.89
2023-01-07T11:41:59.887Z,10.86
2023-01-07T11:42:59.850Z,10.84
2023-01-07T11:43:59.858Z,10.88
2023-01-07T11:45:00.094Z,10.88
2023-01-07T11:46:19.149Z,10.88
2023-01-07T11:46:59.868Z,10.85
2023-01-07T11:47:59.799Z,10.82
2023-01-07T11:48:59.860Z,10.76
2023-01-07T11:49:59.785Z,10.76
2023-01-07T11:50:59.804Z,10.78
2023-01-07T11:51:59.753Z,10.79
2023-01-07T11:52:59.738Z,10.71
2023-01-07T11:53:59.744Z,10.71
2023-01-07T11:54:59.704Z,10.76
2023-01-07T11:55:59.726Z,10.79
2023-01-07T11:56:59.693Z,10.81
2023-01-07T11:58:28.326Z,10.79
2023-01-07T11:58:59.671Z,10.82
2023-01-07T11:59:59.669Z,10.82
2023-01-07T12:00:59.690Z,10.81
2023-01-07T12:01:59.795Z,10.82
2023-01-07T12:02:59.619Z,10.86
2023-01-07T12:03:59.608Z,10.88
2023-01-07T12:04:59.596Z,10.88
2023-01-07T12:05:59.587Z,10.88
2023-01-07T12:06:59.595Z,10.88
2023-01-07T12:07:59.581Z,10.91
2023-01-07T12:08:59.562Z,10.88
2023-01-07T12:09:59.537Z,10.92
2023-01-07T12:10:59.529Z,10.96
2023-01-07T12:11:59.511Z,10.97
2023-01-07T12:12:59.547Z,10.99
2023-01-07T12:13:59.492Z,11.02
2023-01-07T12:14:59.478Z,11.00
2023-01-07T12:15:59.485Z,11.00
2023-01-07T12:16:59.451Z,11.03
2023-01-07T12:17:59.449Z,11.04
2023-01-07T12:18:59.463Z,11.00
2023-01-07T12:19:59.440Z,11.00
2023-01-07T12:20:59.410Z,10.99
2023-01-07T12:21:59.401Z,10.99
2023-01-07T12:22:59.405Z,11.00
2023-01-07T12:23:59.393Z,11.00
2023-01-07T12:24:59.360Z,11.06
2023-01-07T12:25:59.404Z,11.09
2023-01-07T12:26:59.357Z,11.07
2023-01-07T12:27:59.336Z,11.09
2023-01-07T12:28:59.318Z,11.09
2023-01-07T12:29:59.321Z,11.06
2023-01-07T12:30:59.377Z,11.07
2023-01-07T12:31:59.311Z,11.10
2023-01-07T12:32:59.414Z,11.10
2023-01-07T12:33:59.250Z,11.11
2023-01-07T12:34:59.260Z,11.09
2023-01-07T12:35:59.245Z,11.07
2023-01-07T12:36:59.231Z,11.04
2023-01-07T12:37:59.225Z,10.99
2023-01-07T12:38:59.217Z,10.97
2023-01-07T12:39:59.220Z,10.97
2023-01-07T12:40:59.177Z,10.96
2023-01-07T12:41:59.227Z,10.99
2023-01-07T12:42:59.161Z,10.94
2023-01-07T12:43:59.142Z,10.94
2023-01-07T12:44:59.147Z,10.99
2023-01-07T12:45:59.222Z,10.96
2023-01-07T12:47:31.088Z,10.99
2023-01-07T12:47:59.133Z,11.03
2023-01-07T12:48:59.083Z,11.06
2023-01-07T12:49:59.079Z,11.10
2023-01-07T12:50:59.081Z,11.11
2023-01-07T12:51:59.064Z,11.19
2023-01-07T12:52:59.056Z,11.24
2023-01-07T12:53:59.069Z,11.25
2023-01-07T12:54:59.051Z,11.27
2023-01-07T12:55:59.080Z,11.25
2023-01-07T12:56:58.997Z,11.19
2023-01-07T12:57:59.007Z,11.18
2023-01-07T12:58:58.972Z,11.10
2023-01-07T12:59:58.987Z,11.04
2023-01-07T13:00:59.029Z,10.99
2023-01-07T13:01:59.053Z,10.96
2023-01-07T13:02:58.928Z,10.94
2023-01-07T13:03:58.933Z,10.92
2023-01-07T13:04:58.906Z,10.96
2023-01-07T13:05:58.980Z,10.97
2023-01-07T13:06:58.902Z,10.97
2023-01-07T13:07:58.876Z,11.00